createdAt,value
2019-04-19T00:01:01.435Z,99.90
2019-04-19T00:03:31.128Z,99.90
2019-04-19T00:06:21.474Z,99.90
2019-04-19T00:09:04.211Z,99.90
2019-04-19T00:11:27.715Z,99.90
2019-04-19T00:13:47.329Z,99.90
2019-04-19T00:16:17.304Z,99.90
2019-04-19T00:19:10.409Z,99.90
2019-04-19T00:21:34.993Z,99.90
2019-04-19T00:23:48.831Z,99.90
2019-04-19T00:26:16.987Z,99.90
2019-04-19T00:28:53.778Z,99.90
2019-04-19T00:31:29.774Z,99.90
2019-04-19T00:33:51.042Z,99.90
2019-04-19T00:36:18.192Z,99.90
2019-04-19T00:38:57.214Z,99.90
2019-04-19T00:42:10.759Z,99.90
2019-04-19T00:44:53.362Z,99.90
2019-04-19T00:47:19.542Z,99.90
2019-04-19T00:49:48.988Z,99.90
2019-04-19T00:52:14.769Z,99.90
2019-04-19T00:54:46.009Z,99.90
2019-04-19T00:57:15.587Z,99.90
2019-04-19T00:59:39.470Z,99.90
2019-04-19T01:02:13.252Z,99.90
2019-04-19T01:04:38.544Z,99.90
2019-04-19T01:07:08.765Z,99.90
2019-04-19T01:09:49.945Z,99.90
2019-04-19T01:12:20.597Z,99.90
2019-04-19T01:14:48.657Z,99.90
2019-04-19T01:17:23.831Z,99.90
2019-04-19T01:19:47.990Z,99.90
2019-04-19T01:22:17.404Z,99.90
2019-04-19T01:24:51.157Z,99.90
2019-04-19T01:27:25.712Z,99.90
2019-04-19T01:29:54.634Z,99.90
2019-04-19T01:32:23.002Z,99.90
2019-04-19T01:34:57.559Z,99.90
2019-04-19T01:37:26.354Z,99.90
2019-04-19T01:40:12.251Z,99.90
2019-04-19T01:42:41.559Z,99.90
2019-04-19T01:45:40.440Z,99.90
2019-04-19T01:48:19.112Z,99.90
2019-04-19T01:50:59.007Z,99.90
2019-04-19T01:53:30.594Z,99.90
2019-04-19T01:55:43.147Z,99.90
2019-04-19T01:58:16.130Z,99.90
2019-04-19T02:00:47.734Z,99.90
2019-04-19T02:03:12.706Z,99.90
2019-04-19T02:05:48.496Z,99.90
2019-04-19T02:08:14.461Z,99.90
2019-04-19T02:11:47.126Z,99.90
2019-04-19T02:14:15.431Z,99.90
2019-04-19T02:16:40.815Z,99.90
2019-04-19T02:19:15.778Z,99.90
2019-04-19T02:21:42.660Z,99.90
2019-04-19T02:24:12.624Z,99.90
2019-04-19T02:26:46.410Z,99.90
2019-04-19T02:29:17.781Z,99.90
2019-04-19T02:32:17.541Z,99.90
2019-04-19T02:34:40.201Z,99.90
2019-04-19T02:42:24.158Z,99.90
2019-04-19T02:44:51.242Z,99.90
2019-04-19T02:47:21.743Z,99.90
2019-04-19T02:52:22.371Z,99.90
2019-04-19T02:55:12.223Z,99.90
2019-04-19T03:03:21.466Z,99.90
2019-04-19T03:05:45.325Z,99.90
2019-04-19T03:07:55.586Z,99.90
2019-04-19T03:10:26.608Z,99.90
2019-04-19T03:13:08.000Z,99.90
2019-04-19T03:15:43.977Z,99.90
2019-04-19T03:18:19.311Z,99.90
2019-04-19T03:20:40.562Z,99.90
2019-04-19T03:23:15.274Z,99.90
2019-04-19T03:25:40.990Z,99.90
2019-04-19T03:28:14.424Z,99.90
2019-04-19T03:30:53.592Z,99.90
2019-04-19T03:33:25.412Z,99.90
2019-04-19T03:35:53.887Z,99.90
2019-04-19T03:38:24.471Z,99.90
2019-04-19T03:40:50.713Z,99.90
2019-04-19T03:43:38.390Z,99.90
2019-04-19T03:46:16.954Z,99.90
2019-04-19T03:53:45.049Z,99.90
2019-04-19T03:56:12.029Z,99.90
2019-04-19T03:58:23.155Z,99.90
2019-04-19T04:00:50.337Z,99.90
2019-04-19T04:03:27.280Z,99.90
2019-04-19T04:05:53.043Z,99.90
2019-04-19T04:08:26.296Z,99.90
2019-04-19T04:11:19.630Z,99.90
2019-04-19T04:14:03.356Z,99.90
2019-04-19T04:16:35.779Z,99.90
2019-04-19T04:18:57.644Z,99.90
2019-04-19T04:21:29.698Z,99.90
2019-04-19T04:24:10.282Z,99.90
2019-04-19T04:26:36.235Z,99.90
2019-04-19T04:29:07.742Z,99.90
2019-04-19T04:31:44.447Z,99.90
2019-04-19T04:34:10.387Z,99.90
2019-04-19T04:36:50.554Z,99.90
2019-04-19T04:39:00.890Z,99.90
2019-04-19T04:41:32.150Z,99.90
2019-04-19T04:44:20.411Z,99.90
2019-04-19T04:47:02.112Z,99.90
2019-04-19T04:50:02.167Z,99.90
2019-04-19T04:52:30.097Z,99.90
2019-04-19T04:54:59.229Z,99.90
2019-04-19T04:57:39.532Z,99.90
2019-04-19T05:00:00.887Z,99.90
2019-04-19T05:02:49.866Z,99.90
2019-04-19T05:05:21.941Z,99.90
2019-04-19T05:07:53.140Z,99.90
2019-04-19T05:10:21.670Z,99.90
2019-04-19T05:15:22.625Z,99.90
2019-04-19T05:17:58.404Z,99.90
2019-04-19T05:20:23.636Z,99.90
2019-04-19T05:22:59.260Z,99.90
2019-04-19T05:28:01.433Z,99.90
2019-04-19T05:30:15.904Z,99.90
2019-04-19T05:32:55.888Z,99.90
2019-04-19T05:35:28.469Z,99.90
2019-04-19T05:38:14.833Z,99.90
2019-04-19T05:41:06.433Z,99.90
2019-04-19T05:44:16.574Z,99.90
2019-04-19T05:46:43.124Z,99.90
2019-04-19T05:49:03.839Z,99.90
2019-04-19T05:51:38.661Z,99.90
2019-04-19T05:53:52.975Z,99.90
2019-04-19T05:56:18.297Z,99.90
2019-04-19T05:58:57.902Z,99.90
2019-04-19T06:01:36.138Z,99.90
2019-04-19T06:04:07.428Z,99.90
2019-04-19T06:06:45.144Z,99.90
2019-04-19T06:08:49.927Z,99.90
2019-04-19T06:11:23.130Z,99.90
2019-04-19T06:14:10.293Z,99.90
2019-04-19T06:16:35.060Z,99.90
2019-04-19T06:19:15.193Z,99.90
2019-04-19T06:21:42.950Z,99.90
2019-04-19T06:24:20.527Z,99.90
2019-04-19T06:29:16.318Z,99.90
2019-04-19T06:31:51.537Z,99.90
2019-04-19T06:34:20.908Z,99.90
2019-04-19T06:36:29.343Z,99.90
2019-04-19T06:38:59.320Z,99.90
2019-04-19T06:41:32.097Z,99.90
2019-04-19T06:44:08.928Z,99.90
2019-04-19T06:46:45.139Z,99.90
2019-04-19T06:49:07.477Z,99.90
2019-04-19T06:51:37.924Z,99.90
2019-04-19T06:54:05.686Z,99.90
2019-04-19T06:56:36.468Z,99.90
2019-04-19T06:59:10.875Z,99.90
2019-04-19T07:01:41.422Z,99.90
2019-04-19T07:04:02.239Z,99.90
2019-04-19T07:06:44.037Z,99.90
2019-04-19T07:09:27.171Z,99.90
2019-04-19T07:11:55.176Z,99.90
2019-04-19T07:14:11.727Z,99.90
2019-04-19T07:16:51.417Z,99.90
2019-04-19T07:19:24.554Z,99.90
2019-04-19T07:21:48.184Z,99.90
2019-04-19T07:24:30.424Z,99.90
2019-04-19T07:26:52.445Z,99.90
2019-04-19T07:29:04.699Z,99.90
2019-04-19T07:31:35.265Z,99.90
2019-04-19T07:34:15.895Z,99.90
2019-04-19T07:36:49.905Z,99.90
2019-04-19T07:39:24.214Z,99.90
2019-04-19T07:42:00.952Z,99.90
2019-04-19T07:44:37.379Z,99.90
2019-04-19T07:47:27.463Z,99.90
2019-04-19T07:49:55.800Z,99.90
2019-04-19T07:52:21.392Z,99.90
2019-04-19T07:54:47.015Z,99.90
2019-04-19T08:00:23.638Z,99.90
2019-04-19T08:02:49.537Z,99.90
2019-04-19T08:08:05.685Z,99.90
2019-04-19T08:10:08.859Z,99.90
2019-04-19T08:15:19.857Z,99.90
2019-04-19T08:17:56.833Z,99.90
2019-04-19T08:27:30.915Z,99.90
2019-04-19T08:30:02.461Z,99.90
2019-04-19T08:32:23.307Z,99.90
2019-04-19T08:34:58.125Z,99.90
2019-04-19T08:37:30.845Z,99.90
2019-04-19T08:40:08.627Z,99.90
2019-04-19T08:42:38.605Z,99.90
2019-04-19T08:45:01.765Z,99.90
2019-04-19T08:47:51.673Z,99.90
2019-04-19T08:50:22.303Z,99.90
2019-04-19T08:52:58.122Z,99.90
2019-04-19T08:55:45.137Z,99.90
2019-04-19T08:57:59.620Z,99.90
2019-04-19T09:00:53.177Z,99.90
2019-04-19T09:03:07.541Z,99.30
2019-04-19T09:05:45.692Z,99.40
2019-04-19T09:08:21.477Z,99.80
2019-04-19T09:10:49.502Z,98.90
2019-04-19T09:13:35.362Z,99.90
2019-04-19T09:15:45.685Z,99.20
2019-04-19T09:18:33.605Z,99.90
2019-04-19T09:20:50.852Z,99.90
2019-04-19T09:23:16.682Z,98.70
2019-04-19T09:25:55.144Z,98.20
2019-04-19T09:28:42.495Z,98.10
2019-04-19T09:31:02.845Z,98.40
2019-04-19T09:33:22.385Z,98.30
2019-04-19T09:35:55.028Z,98.30
2019-04-19T09:38:29.891Z,97.80
2019-04-19T09:40:55.624Z,98.10
2019-04-19T09:43:32.038Z,98.00
2019-04-19T09:45:48.896Z,99.10
2019-04-19T09:48:38.083Z,99.10
2019-04-19T09:51:06.231Z,99.50
2019-04-19T09:56:07.459Z,97.40
2019-04-19T09:58:36.845Z,98.20
2019-04-19T10:00:55.313Z,97.00
2019-04-19T10:03:31.540Z,96.70
2019-04-19T10:05:56.844Z,96.20
2019-04-19T10:08:24.393Z,95.70
2019-04-19T10:10:52.776Z,96.60
2019-04-19T10:13:21.695Z,95.80
2019-04-19T10:16:12.550Z,96.50
2019-04-19T10:18:49.125Z,95.80
2019-04-19T10:21:39.277Z,94.60
2019-04-19T10:24:13.495Z,94.00
2019-04-19T10:27:03.892Z,92.30
2019-04-19T10:29:37.175Z,92.30
2019-04-19T10:32:10.547Z,90.90
2019-04-19T10:34:39.133Z,90.80
2019-04-19T10:37:08.039Z,91.00
2019-04-19T10:39:37.337Z,91.00
2019-04-19T10:42:06.649Z,90.50
2019-04-19T10:44:36.124Z,91.10
2019-04-19T10:47:05.297Z,92.60
2019-04-19T10:49:44.104Z,93.10
2019-04-19T10:52:15.705Z,92.30
2019-04-19T10:54:45.358Z,90.30
2019-04-19T10:57:19.702Z,89.00
2019-04-19T10:59:50.554Z,89.70
2019-04-19T11:02:22.657Z,91.90
2019-04-19T11:04:53.094Z,91.20
2019-04-19T11:07:25.575Z,90.70
2019-04-19T11:09:56.055Z,90.10
2019-04-19T11:12:26.122Z,91.00
2019-04-19T11:14:55.081Z,88.00
2019-04-19T11:17:25.487Z,86.40
2019-04-19T11:20:08.405Z,87.70
2019-04-19T11:22:25.788Z,83.60
2019-04-19T11:24:56.323Z,84.70
2019-04-19T11:27:25.005Z,76.10
2019-04-19T11:29:58.584Z,80.60
2019-04-19T11:32:37.846Z,81.20
2019-04-19T11:35:09.350Z,78.10
2019-04-19T11:37:39.169Z,76.70
2019-04-19T11:40:10.947Z,80.60
2019-04-19T11:42:41.486Z,78.00
2019-04-19T11:45:12.436Z,77.20
2019-04-19T11:47:40.908Z,75.50
2019-04-19T11:50:09.707Z,79.10
2019-04-19T11:52:44.075Z,77.20
2019-04-19T11:55:14.644Z,77.90
2019-04-19T11:57:54.623Z,74.30
2019-04-19T12:00:42.200Z,71.90
2019-04-19T12:03:18.085Z,69.50
2019-04-19T12:05:47.239Z,67.00
2019-04-19T12:08:15.999Z,74.60
2019-04-19T12:10:46.539Z,64.90
2019-04-19T12:13:15.242Z,64.80
2019-04-19T12:15:48.487Z,67.70
2019-04-19T12:18:15.886Z,63.20
2019-04-19T12:20:44.919Z,65.80
2019-04-19T12:23:13.812Z,65.70
2019-04-19T12:25:43.795Z,65.30
2019-04-19T12:28:12.319Z,60.30
2019-04-19T12:30:45.255Z,60.80
2019-04-19T12:33:11.299Z,58.80
2019-04-19T12:35:41.247Z,61.70
2019-04-19T12:38:10.217Z,58.30
2019-04-19T12:40:51.931Z,57.20
2019-04-19T12:43:20.839Z,58.90
2019-04-19T12:45:51.932Z,60.00
2019-04-19T12:48:21.630Z,55.70
2019-04-19T12:50:51.482Z,54.20
2019-04-19T12:53:21.645Z,60.40
2019-04-19T12:55:50.214Z,55.70
2019-04-19T12:58:21.914Z,57.00
2019-04-19T13:01:10.041Z,56.10
2019-04-19T13:03:57.089Z,53.80
2019-04-19T13:06:27.394Z,52.30
2019-04-19T13:08:57.108Z,52.50
2019-04-19T13:11:27.092Z,56.10
2019-04-19T13:13:55.828Z,49.50
2019-04-19T13:16:24.359Z,49.90
2019-04-19T13:18:54.132Z,54.10
2019-04-19T13:21:24.098Z,49.10
2019-04-19T13:23:54.466Z,50.50
2019-04-19T13:26:23.201Z,50.90
2019-04-19T13:28:51.713Z,50.50
2019-04-19T13:31:20.754Z,50.10
2019-04-19T13:33:49.324Z,50.10
2019-04-19T13:36:22.654Z,50.70
2019-04-19T13:39:11.116Z,49.90
2019-04-19T13:41:49.043Z,48.30
2019-04-19T13:44:18.686Z,48.20
2019-04-19T13:46:48.600Z,48.70
2019-04-19T13:49:17.332Z,46.10
2019-04-19T13:51:46.096Z,45.80
2019-04-19T13:54:14.791Z,46.90
2019-04-19T13:56:45.974Z,48.80
2019-04-19T13:59:14.277Z,48.60
2019-04-19T14:01:42.925Z,50.20
2019-04-19T14:04:13.395Z,47.00
2019-04-19T14:06:42.413Z,47.30
2019-04-19T14:09:15.674Z,46.00
2019-04-19T14:11:44.964Z,46.90
2019-04-19T14:14:14.201Z,48.60
2019-04-19T14:16:43.843Z,47.30
2019-04-19T14:19:13.475Z,45.00
2019-04-19T14:21:42.658Z,45.50
2019-04-19T14:24:11.447Z,44.40
2019-04-19T14:26:49.687Z,44.90
2019-04-19T14:29:13.349Z,45.30
2019-04-19T14:31:42.121Z,46.50
2019-04-19T14:34:11.178Z,46.20
2019-04-19T14:36:40.310Z,46.20
2019-04-19T14:39:10.719Z,45.40
2019-04-19T14:41:41.386Z,45.30
2019-04-19T14:44:13.264Z,45.30
2019-04-19T14:46:43.045Z,47.10
2019-04-19T14:49:13.146Z,46.50
2019-04-19T14:51:45.913Z,45.50
2019-04-19T14:54:17.018Z,45.40
2019-04-19T14:56:47.759Z,45.40
2019-04-19T14:59:17.332Z,46.10
2019-04-19T15:02:09.101Z,46.60
2019-04-19T15:04:53.637Z,47.00
2019-04-19T15:07:22.830Z,47.00
2019-04-19T15:09:51.461Z,47.40
2019-04-19T15:12:20.710Z,48.50
2019-04-19T15:14:51.199Z,49.00
2019-04-19T15:17:22.091Z,47.90
2019-04-19T15:19:50.583Z,48.60
2019-04-19T15:22:20.021Z,48.90
2019-04-19T15:24:48.816Z,48.60
2019-04-19T15:27:19.097Z,48.50
2019-04-19T15:29:49.117Z,48.80
2019-04-19T15:32:18.136Z,49.70
2019-04-19T15:34:47.645Z,49.00
2019-04-19T15:37:16.354Z,49.10
2019-04-19T15:39:46.134Z,51.50
2019-04-19T15:42:16.190Z,50.10
2019-04-19T15:44:44.901Z,50.00
2019-04-19T15:47:14.621Z,52.90
2019-04-19T15:49:46.142Z,52.10
2019-04-19T15:52:14.964Z,50.20
2019-04-19T15:54:43.925Z,50.50
2019-04-19T15:57:12.429Z,50.80
2019-04-19T15:59:41.186Z,51.80
2019-04-19T16:02:36.039Z,50.50
2019-04-19T16:05:26.215Z,50.20
2019-04-19T16:08:06.534Z,50.80
2019-04-19T16:11:00.736Z,50.50
2019-04-19T16:13:29.997Z,50.40
2019-04-19T16:16:00.390Z,50.90
2019-04-19T16:18:30.391Z,51.70
2019-04-19T16:20:59.229Z,51.70
2019-04-19T16:23:29.867Z,52.20
2019-04-19T16:25:59.209Z,52.10
2019-04-19T16:28:29.726Z,52.30
2019-04-19T16:30:59.979Z,53.30
2019-04-19T16:33:29.875Z,52.80
2019-04-19T16:35:58.633Z,53.30
2019-04-19T16:38:28.312Z,54.10
2019-04-19T16:40:56.823Z,54.50
2019-04-19T16:43:27.064Z,55.00
2019-04-19T16:46:08.060Z,54.90
2019-04-19T16:48:26.418Z,54.90
2019-04-19T16:50:55.172Z,54.00
2019-04-19T16:53:24.007Z,55.50
2019-04-19T16:55:53.881Z,53.10
2019-04-19T16:58:22.461Z,53.10
2019-04-19T17:00:52.636Z,54.90
2019-04-19T17:03:21.606Z,56.10
2019-04-19T17:05:50.956Z,54.90
2019-04-19T17:08:21.736Z,54.10
2019-04-19T17:10:50.401Z,56.80
2019-04-19T17:13:18.780Z,57.70
2019-04-19T17:15:59.840Z,57.20
2019-04-19T17:18:39.105Z,55.80
2019-04-19T17:21:10.161Z,58.50
2019-04-19T17:23:38.614Z,58.10
2019-04-19T17:26:08.809Z,58.80
2019-04-19T17:28:39.143Z,59.60
2019-04-19T17:31:08.720Z,59.00
2019-04-19T17:33:38.149Z,63.80
2019-04-19T17:36:08.203Z,65.70
2019-04-19T17:39:47.167Z,67.30
2019-04-19T17:41:08.385Z,68.90
2019-04-19T17:43:37.581Z,69.80
2019-04-19T17:46:08.658Z,70.40
2019-04-19T17:48:38.686Z,71.50
2019-04-19T17:51:09.502Z,72.80
2019-04-19T17:53:42.618Z,73.90
2019-04-19T17:56:09.235Z,74.10
2019-04-19T17:58:38.200Z,74.90
2019-04-19T18:01:08.321Z,75.50
2019-04-19T18:03:37.386Z,76.10
2019-04-19T18:06:06.096Z,77.30
2019-04-19T18:08:37.839Z,77.50
2019-04-19T18:11:07.584Z,78.90
2019-04-19T18:13:37.253Z,79.60
2019-04-19T18:16:06.922Z,79.80
2019-04-19T18:18:41.841Z,79.70
2019-04-19T18:21:08.470Z,80.00
2019-04-19T18:23:44.663Z,80.70
2019-04-19T18:26:17.622Z,80.80
2019-04-19T18:28:43.090Z,82.40
2019-04-19T18:31:12.858Z,83.70
2019-04-19T18:33:58.861Z,84.90
2019-04-19T18:36:25.641Z,85.00
2019-04-19T18:38:53.831Z,85.90
2019-04-19T18:41:25.021Z,85.80
2019-04-19T18:44:09.078Z,86.40
2019-04-19T18:46:35.073Z,86.70
2019-04-19T18:49:17.989Z,86.70
2019-04-19T18:51:49.840Z,86.90
2019-04-19T18:54:24.688Z,87.60
2019-04-19T18:56:58.403Z,88.00
2019-04-19T18:59:24.115Z,88.00
2019-04-19T19:01:51.698Z,88.40
2019-04-19T19:04:26.417Z,87.80
2019-04-19T19:06:54.659Z,87.90
2019-04-19T19:09:33.231Z,88.50
2019-04-19T19:12:01.070Z,87.90
2019-04-19T19:14:27.005Z,89.00
2019-04-19T19:16:58.965Z,89.80
2019-04-19T19:19:31.930Z,90.20
2019-04-19T19:22:00.489Z,90.50
2019-04-19T19:24:49.298Z,90.70
2019-04-19T19:27:07.351Z,91.10
2019-04-19T19:29:32.255Z,91.50
2019-04-19T19:32:03.707Z,91.40
2019-04-19T19:34:34.451Z,91.30
2019-04-19T19:37:03.200Z,91.20
2019-04-19T19:39:36.945Z,91.30
2019-04-19T19:43:09.045Z,91.90
2019-04-19T19:44:47.908Z,91.90
2019-04-19T19:47:53.857Z,91.90
2019-04-19T19:50:22.762Z,92.30
2019-04-19T19:52:54.677Z,92.50
2019-04-19T19:55:17.121Z,92.60
2019-04-19T19:57:46.532Z,92.80
2019-04-19T20:00:13.215Z,93.00
2019-04-19T20:02:51.534Z,93.30
2019-04-19T20:05:13.125Z,93.20
2019-04-19T20:07:46.151Z,93.60
2019-04-19T20:10:13.673Z,94.20
2019-04-19T20:12:49.372Z,94.40
2019-04-19T20:15:15.206Z,94.80
2019-04-19T20:17:50.990Z,94.80
2019-04-19T20:20:16.362Z,94.90
2019-04-19T20:22:48.506Z,95.60
2019-04-19T20:25:28.784Z,96.20
2019-04-19T20:27:51.747Z,96.50
2019-04-19T20:30:19.416Z,96.60
2019-04-19T20:32:52.859Z,96.70
2019-04-19T20:35:22.611Z,96.60
2019-04-19T20:37:53.465Z,96.50
2019-04-19T20:40:20.986Z,97.00
2019-04-19T20:43:09.062Z,97.60
2019-04-19T20:45:29.023Z,97.90
2019-04-19T20:47:54.346Z,98.60
2019-04-19T20:50:28.702Z,99.00
2019-04-19T20:53:35.754Z,99.10
2019-04-19T20:56:29.347Z,99.30
2019-04-19T20:58:38.585Z,99.30
2019-04-19T21:01:01.270Z,99.90
2019-04-19T21:03:34.403Z,99.90
2019-04-19T21:06:01.840Z,99.90
2019-04-19T21:08:30.667Z,99.90
2019-04-19T21:11:02.700Z,99.90
2019-04-19T21:13:29.714Z,99.90
2019-04-19T21:15:58.426Z,99.90
2019-04-19T21:18:29.037Z,99.90
2019-04-19T21:21:03.745Z,99.90
2019-04-19T21:23:30.860Z,99.90
2019-04-19T21:26:03.614Z,99.90
2019-04-19T21:28:39.847Z,99.90
2019-04-19T21:31:04.517Z,99.90
2019-04-19T21:33:33.094Z,99.90
2019-04-19T21:36:06.358Z,99.90
2019-04-19T21:38:32.065Z,99.90
2019-04-19T21:41:04.169Z,99.90
2019-04-19T21:43:33.781Z,99.90
2019-04-19T21:46:03.640Z,99.90
2019-04-19T21:48:36.335Z,99.90
2019-04-19T21:51:03.908Z,99.90
2019-04-19T21:53:36.559Z,99.90
2019-04-19T21:56:11.126Z,99.90
2019-04-19T21:58:36.090Z,99.90
2019-04-19T22:01:12.454Z,99.90
2019-04-19T22:03:38.425Z,99.90
2019-04-19T22:06:15.095Z,99.90
2019-04-19T22:08:41.503Z,99.90
2019-04-19T22:11:08.754Z,99.90
2019-04-19T22:13:43.563Z,99.90
2019-04-19T22:16:10.591Z,99.90
2019-04-19T22:18:44.220Z,99.90
2019-04-19T22:21:10.532Z,99.90
2019-04-19T22:23:40.725Z,99.90
2019-04-19T22:26:20.196Z,99.90
2019-04-19T22:28:40.006Z,99.90
2019-04-19T22:31:10.426Z,99.90
2019-04-19T22:33:38.950Z,99.90
2019-04-19T22:36:08.884Z,99.90
2019-04-19T22:38:37.904Z,99.90
2019-04-19T22:41:12.424Z,99.90
2019-04-19T22:43:36.758Z,99.90
2019-04-19T22:46:08.791Z,99.90
2019-04-19T22:48:35.757Z,99.90
2019-04-19T22:51:10.159Z,99.90
2019-04-19T22:53:40.685Z,99.90
2019-04-19T22:56:15.940Z,99.90
2019-04-19T22:58:37.485Z,99.90
2019-04-19T23:01:19.747Z,99.90
2019-04-19T23:03:46.430Z,99.90
2019-04-19T23:06:19.824Z,99.90
2019-04-19T23:08:46.600Z,99.90
2019-04-19T23:11:15.380Z,99.90
2019-04-19T23:13:45.190Z,99.90
2019-04-19T23:16:15.523Z,99.90
2019-04-19T23:18:53.128Z,99.90
2019-04-19T23:21:19.581Z,99.90
2019-04-19T23:23:47.221Z,99.90
2019-04-19T23:26:27.939Z,99.90
2019-04-19T23:28:48.016Z,99.90
2019-04-19T23:31:18.038Z,99.90
2019-04-19T23:33:54.250Z,99.90
2019-04-19T23:36:21.051Z,99.90
2019-04-19T23:38:47.473Z,99.90
2019-04-19T23:41:17.345Z,99.90
2019-04-19T23:43:47.243Z,99.90
2019-04-19T23:46:24.010Z,99.90
2019-04-19T23:48:47.394Z,99.90
2019-04-19T23:51:16.579Z,99.90
2019-04-19T23:53:46.401Z,99.90
2019-04-19T23:56:22.416Z,99.90
2019-04-19T23:58:46.138Z,99.90
